sensor_id;sensor_type;location;lat;lon;timestamp;P1;durP1;ratioP1;P2;durP2;ratioP2
37943;SDS011;23767;42.024;23.086;2023-07-31T00:00:02;6.25;;;3.25;;
37943;SDS011;23767;42.024;23.086;2023-07-31T00:02:28;5.13;;;3.55;;
37943;SDS011;23767;42.024;23.086;2023-07-31T00:04:54;5.40;;;3.30;;
37943;SDS011;23767;42.024;23.086;2023-07-31T00:07:20;7.95;;;3.22;;
37943;SDS011;23767;42.024;23.086;2023-07-31T00:09:46;4.60;;;2.67;;
37943;SDS011;23767;42.024;23.086;2023-07-31T00:12:12;4.55;;;2.60;;
37943;SDS011;23767;42.024;23.086;2023-07-31T00:14:38;5.03;;;2.60;;
37943;SDS011;23767;42.024;23.086;2023-07-31T00:17:04;6.60;;;3.00;;
37943;SDS011;23767;42.024;23.086;2023-07-31T00:19:30;5.68;;;3.00;;
37943;SDS011;23767;42.024;23.086;2023-07-31T00:21:56;4.50;;;2.83;;
37943;SDS011;23767;42.024;23.086;2023-07-31T00:24:22;5.38;;;3.10;;
37943;SDS011;23767;42.024;23.086;2023-07-31T00:26:48;5.03;;;3.08;;
37943;SDS011;23767;42.024;23.086;2023-07-31T00:29:14;6.47;;;3.10;;
37943;SDS011;23767;42.024;23.086;2023-07-31T00:31:40;6.78;;;3.17;;
37943;SDS011;23767;42.024;23.086;2023-07-31T00:34:06;5.00;;;3.05;;
37943;SDS011;23767;42.024;23.086;2023-07-31T00:36:32;8.40;;;3.58;;
37943;SDS011;23767;42.024;23.086;2023-07-31T00:38:59;7.30;;;3.40;;
37943;SDS011;23767;42.024;23.086;2023-07-31T00:41:25;5.53;;;3.38;;
37943;SDS011;23767;42.024;23.086;2023-07-31T00:43:51;5.85;;;3.78;;
37943;SDS011;23767;42.024;23.086;2023-07-31T00:46:17;5.70;;;3.95;;
37943;SDS011;23767;42.024;23.086;2023-07-31T00:48:43;5.30;;;3.40;;
37943;SDS011;23767;42.024;23.086;2023-07-31T00:51:09;7.63;;;3.97;;
37943;SDS011;23767;42.024;23.086;2023-07-31T00:53:36;5.70;;;3.70;;
37943;SDS011;23767;42.024;23.086;2023-07-31T00:56:03;7.50;;;3.45;;
37943;SDS011;23767;42.024;23.086;2023-07-31T00:58:29;5.47;;;3.60;;
37943;SDS011;23767;42.024;23.086;2023-07-31T01:00:55;4.25;;;3.10;;
37943;SDS011;23767;42.024;23.086;2023-07-31T01:03:21;4.47;;;3.30;;
37943;SDS011;23767;42.024;23.086;2023-07-31T01:10:55;5.95;;;3.70;;
37943;SDS011;23767;42.024;23.086;2023-07-31T01:13:21;5.22;;;3.50;;
37943;SDS011;23767;42.024;23.086;2023-07-31T01:15:47;6.88;;;3.65;;
37943;SDS011;23767;42.024;23.086;2023-07-31T01:18:13;9.18;;;4.43;;
37943;SDS011;23767;42.024;23.086;2023-07-31T01:20:39;8.82;;;4.20;;
37943;SDS011;23767;42.024;23.086;2023-07-31T01:26:12;7.07;;;3.45;;
37943;SDS011;23767;42.024;23.086;2023-07-31T01:31:04;7.50;;;3.83;;
37943;SDS011;23767;42.024;23.086;2023-07-31T01:33:32;7.30;;;3.63;;
37943;SDS011;23767;42.024;23.086;2023-07-31T01:35:58;6.90;;;4.15;;
37943;SDS011;23767;42.024;23.086;2023-07-31T01:38:24;8.00;;;4.00;;
37943;SDS011;23767;42.024;23.086;2023-07-31T01:40:51;7.22;;;4.18;;
37943;SDS011;23767;42.024;23.086;2023-07-31T01:43:18;8.02;;;3.40;;
37943;SDS011;23767;42.024;23.086;2023-07-31T01:45:44;7.43;;;3.90;;
37943;SDS011;23767;42.024;23.086;2023-07-31T01:48:10;5.75;;;3.50;;
37943;SDS011;23767;42.024;23.086;2023-07-31T01:50:36;6.57;;;3.80;;
37943;SDS011;23767;42.024;23.086;2023-07-31T01:53:02;6.15;;;3.72;;
37943;SDS011;23767;42.024;23.086;2023-07-31T01:55:28;5.22;;;3.30;;
37943;SDS011;23767;42.024;23.086;2023-07-31T01:57:54;8.57;;;3.70;;
37943;SDS011;23767;42.024;23.086;2023-07-31T02:00:20;6.07;;;3.53;;
37943;SDS011;23767;42.024;23.086;2023-07-31T02:02:46;6.60;;;3.35;;
37943;SDS011;23767;42.024;23.086;2023-07-31T02:05:12;6.05;;;3.83;;
37943;SDS011;23767;42.024;23.086;2023-07-31T02:07:38;6.47;;;3.72;;
37943;SDS011;23767;42.024;23.086;2023-07-31T02:10:04;5.50;;;3.70;;
37943;SDS011;23767;42.024;23.086;2023-07-31T02:12:30;6.22;;;3.58;;
37943;SDS011;23767;42.024;23.086;2023-07-31T02:14:57;6.30;;;3.65;;
37943;SDS011;23767;42.024;23.086;2023-07-31T02:17:23;5.82;;;3.67;;
37943;SDS011;23767;42.024;23.086;2023-07-31T02:19:49;5.45;;;3.25;;
37943;SDS011;23767;42.024;23.086;2023-07-31T02:22:15;7.22;;;4.00;;
37943;SDS011;23767;42.024;23.086;2023-07-31T02:24:41;5.90;;;3.75;;
37943;SDS011;23767;42.024;23.086;2023-07-31T02:27:07;7.32;;;4.10;;
37943;SDS011;23767;42.024;23.086;2023-07-31T02:29:33;5.88;;;3.67;;
37943;SDS011;23767;42.024;23.086;2023-07-31T02:31:59;6.65;;;3.85;;
37943;SDS011;23767;42.024;23.086;2023-07-31T02:34:25;6.63;;;3.80;;
37943;SDS011;23767;42.024;23.086;2023-07-31T02:36:51;6.80;;;4.10;;
37943;SDS011;23767;42.024;23.086;2023-07-31T02:39:17;6.45;;;4.00;;
37943;SDS011;23767;42.024;23.086;2023-07-31T02:41:43;5.93;;;3.70;;
37943;SDS011;23767;42.024;23.086;2023-07-31T02:44:09;7.10;;;4.30;;
37943;SDS011;23767;42.024;23.086;2023-07-31T02:46:37;6.25;;;3.85;;
37943;SDS011;23767;42.024;23.086;2023-07-31T02:49:03;6.50;;;4.10;;
37943;SDS011;23767;42.024;23.086;2023-07-31T02:51:29;7.15;;;4.60;;
37943;SDS011;23767;42.024;23.086;2023-07-31T02:53:55;6.72;;;4.50;;
37943;SDS011;23767;42.024;23.086;2023-07-31T02:56:22;7.10;;;4.75;;
37943;SDS011;23767;42.024;23.086;2023-07-31T02:58:48;6.47;;;4.80;;
37943;SDS011;23767;42.024;23.086;2023-07-31T03:01:14;10.95;;;5.72;;
37943;SDS011;23767;42.024;23.086;2023-07-31T03:03:41;7.70;;;5.20;;
37943;SDS011;23767;42.024;23.086;2023-07-31T03:06:07;9.18;;;5.70;;
37943;SDS011;23767;42.024;23.086;2023-07-31T03:08:33;8.80;;;5.32;;
37943;SDS011;23767;42.024;23.086;2023-07-31T03:10:59;8.73;;;5.80;;
37943;SDS011;23767;42.024;23.086;2023-07-31T03:13:25;8.20;;;5.65;;
37943;SDS011;23767;42.024;23.086;2023-07-31T03:15:51;7.85;;;5.45;;
37943;SDS011;23767;42.024;23.086;2023-07-31T03:18:17;9.40;;;5.35;;
37943;SDS011;23767;42.024;23.086;2023-07-31T03:20:43;6.60;;;4.90;;
37943;SDS011;23767;42.024;23.086;2023-07-31T03:23:09;8.25;;;5.07;;
37943;SDS011;23767;42.024;23.086;2023-07-31T03:25:35;9.07;;;6.30;;
37943;SDS011;23767;42.024;23.086;2023-07-31T03:28:01;7.80;;;5.15;;
37943;SDS011;23767;42.024;23.086;2023-07-31T03:30:27;8.45;;;5.53;;
37943;SDS011;23767;42.024;23.086;2023-07-31T03:32:53;8.68;;;5.20;;
37943;SDS011;23767;42.024;23.086;2023-07-31T03:35:19;8.82;;;5.03;;
37943;SDS011;23767;42.024;23.086;2023-07-31T03:37:45;7.65;;;5.32;;
37943;SDS011;23767;42.024;23.086;2023-07-31T03:40:12;7.30;;;5.25;;
37943;SDS011;23767;42.024;23.086;2023-07-31T03:42:38;8.05;;;5.85;;
37943;SDS011;23767;42.024;23.086;2023-07-31T03:45:04;8.23;;;5.50;;
37943;SDS011;23767;42.024;23.086;2023-07-31T03:47:30;11.07;;;5.65;;
37943;SDS011;23767;42.024;23.086;2023-07-31T03:49:56;7.20;;;5.30;;
37943;SDS011;23767;42.024;23.086;2023-07-31T03:52:22;9.65;;;5.85;;
37943;SDS011;23767;42.024;23.086;2023-07-31T03:54:48;6.85;;;5.10;;
37943;SDS011;23767;42.024;23.086;2023-07-31T03:57:14;6.82;;;5.72;;
37943;SDS011;23767;42.024;23.086;2023-07-31T03:59:41;8.43;;;6.20;;
37943;SDS011;23767;42.024;23.086;2023-07-31T04:02:07;8.77;;;5.25;;
37943;SDS011;23767;42.024;23.086;2023-07-31T04:04:33;9.00;;;5.88;;
37943;SDS011;23767;42.024;23.086;2023-07-31T04:06:59;8.77;;;6.53;;
37943;SDS011;23767;42.024;23.086;2023-07-31T04:09:25;8.75;;;5.57;;
37943;SDS011;23767;42.024;23.086;2023-07-31T04:11:51;7.68;;;5.22;;
37943;SDS011;23767;42.024;23.086;2023-07-31T04:14:17;9.13;;;5.38;;
37943;SDS011;23767;42.024;23.086;2023-07-31T04:16:43;7.13;;;5.03;;
37943;SDS011;23767;42.024;23.086;2023-07-31T04:19:09;6.90;;;5.38;;
37943;SDS011;23767;42.024;23.086;2023-07-31T04:21:35;18.08;;;7.65;;
37943;SDS011;23767;42.024;23.086;2023-07-31T04:24:01;8.70;;;5.65;;
37943;SDS011;23767;42.024;23.086;2023-07-31T04:26:27;7.88;;;5.78;;
37943;SDS011;23767;42.024;23.086;2023-07-31T04:28:53;8.45;;;5.93;;
37943;SDS011;23767;42.024;23.086;2023-07-31T04:31:19;8.15;;;5.60;;
37943;SDS011;23767;42.024;23.086;2023-07-31T04:33:45;8.13;;;6.20;;
37943;SDS011;23767;42.024;23.086;2023-07-31T04:36:11;8.60;;;6.00;;
37943;SDS011;23767;42.024;23.086;2023-07-31T04:38:37;10.57;;;6.72;;
37943;SDS011;23767;42.024;23.086;2023-07-31T04:41:03;9.82;;;6.20;;
37943;SDS011;23767;42.024;23.086;2023-07-31T04:43:30;9.68;;;6.93;;
37943;SDS011;23767;42.024;23.086;2023-07-31T04:45:56;11.40;;;7.38;;
37943;SDS011;23767;42.024;23.086;2023-07-31T04:48:23;11.10;;;6.60;;
37943;SDS011;23767;42.024;23.086;2023-07-31T04:50:49;9.15;;;6.28;;
37943;SDS011;23767;42.024;23.086;2023-07-31T04:53:15;8.85;;;6.88;;
37943;SDS011;23767;42.024;23.086;2023-07-31T04:55:41;12.23;;;6.47;;
37943;SDS011;23767;42.024;23.086;2023-07-31T04:58:07;11.05;;;7.07;;
37943;SDS011;23767;42.024;23.086;2023-07-31T05:03:09;10.57;;;6.43;;
37943;SDS011;23767;42.024;23.086;2023-07-31T05:05:36;9.00;;;6.88;;
37943;SDS011;23767;42.024;23.086;2023-07-31T05:08:02;9.63;;;7.15;;
37943;SDS011;23767;42.024;23.086;2023-07-31T05:10:28;10.85;;;6.95;;
37943;SDS011;23767;42.024;23.086;2023-07-31T05:12:55;10.95;;;6.90;;
37943;SDS011;23767;42.024;23.086;2023-07-31T05:15:21;10.50;;;6.82;;
37943;SDS011;23767;42.024;23.086;2023-07-31T05:17:47;11.80;;;7.82;;
37943;SDS011;23767;42.024;23.086;2023-07-31T05:20:13;9.95;;;7.95;;
37943;SDS011;23767;42.024;23.086;2023-07-31T05:22:39;11.40;;;7.88;;
37943;SDS011;23767;42.024;23.086;2023-07-31T05:25:06;11.45;;;8.05;;
37943;SDS011;23767;42.024;23.086;2023-07-31T05:27:32;10.57;;;9.13;;
37943;SDS011;23767;42.024;23.086;2023-07-31T05:29:58;9.95;;;8.52;;
37943;SDS011;23767;42.024;23.086;2023-07-31T05:32:24;11.20;;;10.02;;
37943;SDS011;23767;42.024;23.086;2023-07-31T05:34:50;11.73;;;10.20;;
37943;SDS011;23767;42.024;23.086;2023-07-31T05:37:17;14.50;;;10.93;;
37943;SDS011;23767;42.024;23.086;2023-07-31T05:39:43;13.27;;;11.32;;
37943;SDS011;23767;42.024;23.086;2023-07-31T05:42:09;13.20;;;11.10;;
37943;SDS011;23767;42.024;23.086;2023-07-31T05:44:35;13.20;;;11.80;;
37943;SDS011;23767;42.024;23.086;2023-07-31T05:47:01;12.80;;;11.38;;
37943;SDS011;23767;42.024;23.086;2023-07-31T05:49:27;13.95;;;12.65;;
37943;SDS011;23767;42.024;23.086;2023-07-31T05:51:53;15.68;;;13.27;;
37943;SDS011;23767;42.024;23.086;2023-07-31T05:54:19;15.02;;;13.45;;
37943;SDS011;23767;42.024;23.086;2023-07-31T05:56:45;15.27;;;13.68;;
37943;SDS011;23767;42.024;23.086;2023-07-31T05:59:12;15.45;;;13.85;;
37943;SDS011;23767;42.024;23.086;2023-07-31T06:01:38;15.70;;;14.05;;
37943;SDS011;23767;42.024;23.086;2023-07-31T06:04:04;15.35;;;13.85;;
37943;SDS011;23767;42.024;23.086;2023-07-31T06:06:30;18.40;;;14.85;;
37943;SDS011;23767;42.024;23.086;2023-07-31T06:08:57;16.73;;;15.05;;
37943;SDS011;23767;42.024;23.086;2023-07-31T06:11:23;15.73;;;14.23;;
37943;SDS011;23767;42.024;23.086;2023-07-31T06:13:49;15.73;;;14.02;;
37943;SDS011;23767;42.024;23.086;2023-07-31T06:16:15;21.73;;;14.85;;
37943;SDS011;23767;42.024;23.086;2023-07-31T06:18:42;16.33;;;14.73;;
37943;SDS011;23767;42.024;23.086;2023-07-31T06:21:08;15.20;;;13.75;;
37943;SDS011;23767;42.024;23.086;2023-07-31T06:23:34;15.38;;;13.98;;
37943;SDS011;23767;42.024;23.086;2023-07-31T06:26:00;14.60;;;13.30;;
37943;SDS011;23767;42.024;23.086;2023-07-31T06:28:27;14.98;;;13.48;;
37943;SDS011;23767;42.024;23.086;2023-07-31T06:30:54;14.82;;;13.32;;
37943;SDS011;23767;42.024;23.086;2023-07-31T06:33:20;13.60;;;12.35;;
37943;SDS011;23767;42.024;23.086;2023-07-31T06:35:46;14.18;;;12.77;;
37943;SDS011;23767;42.024;23.086;2023-07-31T06:38:12;12.75;;;11.55;;
37943;SDS011;23767;42.024;23.086;2023-07-31T06:40:38;13.27;;;12.07;;
37943;SDS011;23767;42.024;23.086;2023-07-31T06:43:05;14.38;;;12.98;;
37943;SDS011;23767;42.024;23.086;2023-07-31T06:45:34;13.10;;;11.70;;
37943;SDS011;23767;42.024;23.086;2023-07-31T06:48:01;13.60;;;12.40;;
37943;SDS011;23767;42.024;23.086;2023-07-31T06:50:30;15.00;;;10.95;;
37943;SDS011;23767;42.024;23.086;2023-07-31T06:52:56;11.57;;;10.48;;
37943;SDS011;23767;42.024;23.086;2023-07-31T06:55:23;12.60;;;11.30;;
37943;SDS011;23767;42.024;23.086;2023-07-31T06:57:50;13.15;;;10.52;;
37943;SDS011;23767;42.024;23.086;2023-07-31T07:00:17;11.75;;;10.65;;
37943;SDS011;23767;42.024;23.086;2023-07-31T07:02:43;11.98;;;10.80;;
37943;SDS011;23767;42.024;23.086;2023-07-31T07:05:09;14.10;;;11.35;;
37943;SDS011;23767;42.024;23.086;2023-07-31T07:07:35;11.98;;;10.70;;
37943;SDS011;23767;42.024;23.086;2023-07-31T07:10:01;11.90;;;10.80;;
37943;SDS011;23767;42.024;23.086;2023-07-31T07:12:29;11.05;;;9.80;;
37943;SDS011;23767;42.024;23.086;2023-07-31T07:14:55;11.57;;;10.48;;
37943;SDS011;23767;42.024;23.086;2023-07-31T07:17:22;12.65;;;10.70;;
37943;SDS011;23767;42.024;23.086;2023-07-31T07:19:48;11.52;;;10.32;;
37943;SDS011;23767;42.024;23.086;2023-07-31T07:22:14;11.70;;;10.52;;
37943;SDS011;23767;42.024;23.086;2023-07-31T07:24:40;12.02;;;10.63;;
37943;SDS011;23767;42.024;23.086;2023-07-31T07:27:07;11.23;;;10.13;;
37943;SDS011;23767;42.024;23.086;2023-07-31T07:29:35;11.38;;;10.38;;
37943;SDS011;23767;42.024;23.086;2023-07-31T07:32:01;11.27;;;10.18;;
37943;SDS011;23767;42.024;23.086;2023-07-31T07:34:28;11.25;;;10.25;;
37943;SDS011;23767;42.024;23.086;2023-07-31T07:36:54;10.70;;;9.70;;
37943;SDS011;23767;42.024;23.086;2023-07-31T07:39:20;11.93;;;10.05;;
37943;SDS011;23767;42.024;23.086;2023-07-31T07:41:46;11.02;;;9.95;;
37943;SDS011;23767;42.024;23.086;2023-07-31T07:44:13;10.68;;;9.63;;
37943;SDS011;23767;42.024;23.086;2023-07-31T07:46:39;10.90;;;9.85;;
37943;SDS011;23767;42.024;23.086;2023-07-31T07:49:05;10.32;;;9.35;;
37943;SDS011;23767;42.024;23.086;2023-07-31T07:51:31;9.55;;;8.65;;
37943;SDS011;23767;42.024;23.086;2023-07-31T07:53:58;9.40;;;8.27;;
37943;SDS011;23767;42.024;23.086;2023-07-31T07:56:25;9.93;;;8.93;;
37943;SDS011;23767;42.024;23.086;2023-07-31T07:58:51;9.27;;;8.38;;
37943;SDS011;23767;42.024;23.086;2023-07-31T08:01:17;9.13;;;8.23;;
37943;SDS011;23767;42.024;23.086;2023-07-31T08:03:43;10.02;;;8.05;;
37943;SDS011;23767;42.024;23.086;2023-07-31T08:06:09;8.13;;;7.20;;
37943;SDS011;23767;42.024;23.086;2023-07-31T08:08:36;8.32;;;7.53;;
37943;SDS011;23767;42.024;23.086;2023-07-31T08:11:02;7.88;;;7.07;;
37943;SDS011;23767;42.024;23.086;2023-07-31T08:13:28;8.43;;;7.10;;
37943;SDS011;23767;42.024;23.086;2023-07-31T08:15:54;7.95;;;7.22;;
37943;SDS011;23767;42.024;23.086;2023-07-31T08:18:20;7.88;;;6.43;;
37943;SDS011;23767;42.024;23.086;2023-07-31T08:20:46;8.65;;;6.88;;
37943;SDS011;23767;42.024;23.086;2023-07-31T08:23:13;8.35;;;6.13;;
37943;SDS011;23767;42.024;23.086;2023-07-31T08:25:39;6.88;;;5.57;;
37943;SDS011;23767;42.024;23.086;2023-07-31T08:28:05;5.97;;;5.10;;
37943;SDS011;23767;42.024;23.086;2023-07-31T08:30:32;7.30;;;5.55;;
37943;SDS011;23767;42.024;23.086;2023-07-31T08:32:58;9.05;;;5.22;;
37943;SDS011;23767;42.024;23.086;2023-07-31T08:35:25;6.95;;;4.53;;
37943;SDS011;23767;42.024;23.086;2023-07-31T08:37:53;5.10;;;3.92;;
37943;SDS011;23767;42.024;23.086;2023-07-31T08:40:19;8.00;;;4.90;;
37943;SDS011;23767;42.024;23.086;2023-07-31T08:42:47;6.55;;;5.18;;
37943;SDS011;23767;42.024;23.086;2023-07-31T08:45:13;7.60;;;4.88;;
37943;SDS011;23767;42.024;23.086;2023-07-31T08:47:41;6.03;;;4.00;;
37943;SDS011;23767;42.024;23.086;2023-07-31T08:50:07;6.38;;;4.55;;
37943;SDS011;23767;42.024;23.086;2023-07-31T08:52:34;6.68;;;3.83;;
37943;SDS011;23767;42.024;23.086;2023-07-31T08:55:00;6.60;;;4.60;;
37943;SDS011;23767;42.024;23.086;2023-07-31T08:57:26;5.40;;;4.45;;
37943;SDS011;23767;42.024;23.086;2023-07-31T08:59:53;5.20;;;4.40;;
37943;SDS011;23767;42.024;23.086;2023-07-31T09:02:20;8.60;;;4.50;;
37943;SDS011;23767;42.024;23.086;2023-07-31T09:04:46;6.93;;;4.57;;
37943;SDS011;23767;42.024;23.086;2023-07-31T09:07:12;5.82;;;4.10;;
37943;SDS011;23767;42.024;23.086;2023-07-31T09:09:39;5.88;;;4.43;;
37943;SDS011;23767;42.024;23.086;2023-07-31T09:12:06;4.30;;;3.50;;
37943;SDS011;23767;42.024;23.086;2023-07-31T09:14:32;7.00;;;3.80;;
37943;SDS011;23767;42.024;23.086;2023-07-31T09:16:59;4.68;;;3.70;;
37943;SDS011;23767;42.024;23.086;2023-07-31T09:19:34;5.40;;;3.50;;
37943;SDS011;23767;42.024;23.086;2023-07-31T09:22:05;5.28;;;3.42;;
37943;SDS011;23767;42.024;23.086;2023-07-31T09:24:32;4.45;;;3.17;;
37943;SDS011;23767;42.024;23.086;2023-07-31T09:26:58;6.38;;;3.28;;
37943;SDS011;23767;42.024;23.086;2023-07-31T09:29:25;5.07;;;2.70;;
37943;SDS011;23767;42.024;23.086;2023-07-31T09:31:52;4.30;;;2.90;;
37943;SDS011;23767;42.024;23.086;2023-07-31T09:34:18;4.93;;;3.15;;
37943;SDS011;23767;42.024;23.086;2023-07-31T09:36:45;4.20;;;3.10;;
37943;SDS011;23767;42.024;23.086;2023-07-31T09:39:12;4.40;;;3.10;;
37943;SDS011;23767;42.024;23.086;2023-07-31T09:41:39;5.22;;;3.55;;
37943;SDS011;23767;42.024;23.086;2023-07-31T09:44:06;7.03;;;3.10;;
37943;SDS011;23767;42.024;23.086;2023-07-31T09:46:33;6.68;;;2.95;;
37943;SDS011;23767;42.024;23.086;2023-07-31T09:49:18;4.90;;;3.00;;
37943;SDS011;23767;42.024;23.086;2023-07-31T09:51:44;3.75;;;2.50;;
37943;SDS011;23767;42.024;23.086;2023-07-31T09:54:14;4.00;;;2.35;;
37943;SDS011;23767;42.024;23.086;2023-07-31T09:56:42;3.47;;;2.10;;
37943;SDS011;23767;42.024;23.086;2023-07-31T09:59:10;7.00;;;2.55;;
37943;SDS011;23767;42.024;23.086;2023-07-31T10:01:36;5.45;;;2.38;;
37943;SDS011;23767;42.024;23.086;2023-07-31T10:04:02;4.00;;;2.47;;
37943;SDS011;23767;42.024;23.086;2023-07-31T10:06:29;3.80;;;2.60;;
37943;SDS011;23767;42.024;23.086;2023-07-31T10:08:56;4.55;;;2.50;;
37943;SDS011;23767;42.024;23.086;2023-07-31T10:11:22;3.42;;;2.13;;
37943;SDS011;23767;42.024;23.086;2023-07-31T10:13:50;5.95;;;3.00;;
37943;SDS011;23767;42.024;23.086;2023-07-31T10:16:16;4.03;;;2.75;;
37943;SDS011;23767;42.024;23.086;2023-07-31T10:18:43;3.97;;;2.45;;
37943;SDS011;23767;42.024;23.086;2023-07-31T10:21:09;4.15;;;2.65;;
37943;SDS011;23767;42.024;23.086;2023-07-31T10:23:36;6.20;;;2.58;;
37943;SDS011;23767;42.024;23.086;2023-07-31T10:26:03;3.67;;;2.40;;
37943;SDS011;23767;42.024;23.086;2023-07-31T10:28:31;4.10;;;2.35;;
37943;SDS011;23767;42.024;23.086;2023-07-31T10:30:58;5.88;;;2.20;;
37943;SDS011;23767;42.024;23.086;2023-07-31T10:33:25;3.55;;;2.25;;
37943;SDS011;23767;42.024;23.086;2023-07-31T10:35:51;4.93;;;2.10;;
37943;SDS011;23767;42.024;23.086;2023-07-31T10:38:37;5.57;;;2.20;;
37943;SDS011;23767;42.024;23.086;2023-07-31T10:41:09;6.95;;;2.22;;
37943;SDS011;23767;42.024;23.086;2023-07-31T10:43:38;3.85;;;2.38;;
37943;SDS011;23767;42.024;23.086;2023-07-31T10:46:14;4.22;;;1.90;;
37943;SDS011;23767;42.024;23.086;2023-07-31T10:48:40;3.35;;;2.20;;
37943;SDS011;23767;42.024;23.086;2023-07-31T10:51:10;6.55;;;2.33;;
37943;SDS011;23767;42.024;23.086;2023-07-31T10:53:42;3.88;;;2.10;;
37943;SDS011;23767;42.024;23.086;2023-07-31T10:56:08;3.58;;;1.80;;
37943;SDS011;23767;42.024;23.086;2023-07-31T10:58:39;3.60;;;2.00;;
37943;SDS011;23767;42.024;23.086;2023-07-31T11:01:05;5.18;;;2.03;;
37943;SDS011;23767;42.024;23.086;2023-07-31T11:03:41;3.40;;;1.95;;
37943;SDS011;23767;42.024;23.086;2023-07-31T11:06:08;3.97;;;1.92;;
37943;SDS011;23767;42.024;23.086;2023-07-31T11:08:34;4.22;;;1.80;;
37943;SDS011;23767;42.024;23.086;2023-07-31T11:13:27;3.10;;;1.63;;
37943;SDS011;23767;42.024;23.086;2023-07-31T11:15:53;3.70;;;1.70;;
37943;SDS011;23767;42.024;23.086;2023-07-31T11:18:19;3.55;;;1.65;;
37943;SDS011;23767;42.024;23.086;2023-07-31T11:20:45;4.07;;;1.42;;
37943;SDS011;23767;42.024;23.086;2023-07-31T11:23:11;3.47;;;1.65;;
37943;SDS011;23767;42.024;23.086;2023-07-31T11:25:38;3.55;;;1.60;;
37943;SDS011;23767;42.024;23.086;2023-07-31T11:28:14;4.63;;;1.85;;
37943;SDS011;23767;42.024;23.086;2023-07-31T11:30:41;3.45;;;1.50;;
37943;SDS011;23767;42.024;23.086;2023-07-31T11:33:07;3.85;;;1.77;;
37943;SDS011;23767;42.024;23.086;2023-07-31T11:35:34;3.50;;;1.80;;
37943;SDS011;23767;42.024;23.086;2023-07-31T11:38:00;3.17;;;1.60;;
37943;SDS011;23767;42.024;23.086;2023-07-31T11:40:27;5.03;;;2.00;;
37943;SDS011;23767;42.024;23.086;2023-07-31T11:42:57;4.32;;;1.60;;
37943;SDS011;23767;42.024;23.086;2023-07-31T11:45:24;3.20;;;1.63;;
37943;SDS011;23767;42.024;23.086;2023-07-31T11:47:51;3.65;;;1.60;;
37943;SDS011;23767;42.024;23.086;2023-07-31T11:50:17;3.55;;;1.65;;
37943;SDS011;23767;42.024;23.086;2023-07-31T11:52:44;3.55;;;1.63;;
37943;SDS011;23767;42.024;23.086;2023-07-31T11:55:11;4.88;;;1.42;;
37943;SDS011;23767;42.024;23.086;2023-07-31T11:57:39;3.13;;;1.60;;
37943;SDS011;23767;42.024;23.086;2023-07-31T12:00:06;3.33;;;1.80;;
37943;SDS011;23767;42.024;23.086;2023-07-31T12:02:35;3.92;;;1.88;;
37943;SDS011;23767;42.024;23.086;2023-07-31T12:05:02;4.60;;;1.60;;
37943;SDS011;23767;42.024;23.086;2023-07-31T12:07:42;4.40;;;1.67;;
37943;SDS011;23767;42.024;23.086;2023-07-31T12:10:08;4.03;;;1.60;;
37943;SDS011;23767;42.024;23.086;2023-07-31T12:12:34;3.63;;;1.70;;
37943;SDS011;23767;42.024;23.086;2023-07-31T12:15:00;3.33;;;2.03;;
37943;SDS011;23767;42.024;23.086;2023-07-31T12:17:26;3.95;;;1.98;;
37943;SDS011;23767;42.024;23.086;2023-07-31T12:19:52;3.55;;;1.77;;
37943;SDS011;23767;42.024;23.086;2023-07-31T12:22:19;4.45;;;1.80;;
37943;SDS011;23767;42.024;23.086;2023-07-31T12:24:46;5.60;;;1.58;;
37943;SDS011;23767;42.024;23.086;2023-07-31T12:27:13;3.15;;;1.60;;
37943;SDS011;23767;42.024;23.086;2023-07-31T12:29:39;4.13;;;1.70;;
37943;SDS011;23767;42.024;23.086;2023-07-31T12:32:22;3.45;;;1.58;;
37943;SDS011;23767;42.024;23.086;2023-07-31T12:34:53;2.90;;;1.60;;
37943;SDS011;23767;42.024;23.086;2023-07-31T12:37:20;3.55;;;1.70;;
37943;SDS011;23767;42.024;23.086;2023-07-31T12:39:47;3.05;;;1.77;;
37943;SDS011;23767;42.024;23.086;2023-07-31T12:42:13;4.13;;;1.70;;
37943;SDS011;23767;42.024;23.086;2023-07-31T12:44:39;5.90;;;1.75;;
37943;SDS011;23767;42.024;23.086;2023-07-31T12:47:05;3.72;;;1.60;;
37943;SDS011;23767;42.024;23.086;2023-07-31T12:49:31;4.10;;;1.83;;
37943;SDS011;23767;42.024;23.086;2023-07-31T12:51:57;4.00;;;1.70;;
37943;SDS011;23767;42.024;23.086;2023-07-31T12:54:23;4.72;;;1.90;;
37943;SDS011;23767;42.024;23.086;2023-07-31T12:56:49;4.63;;;1.90;;
37943;SDS011;23767;42.024;23.086;2023-07-31T12:59:15;4.32;;;1.73;;
37943;SDS011;23767;42.024;23.086;2023-07-31T13:01:41;4.28;;;1.90;;
37943;SDS011;23767;42.024;23.086;2023-07-31T13:04:07;3.67;;;1.63;;
37943;SDS011;23767;42.024;23.086;2023-07-31T13:06:33;3.33;;;1.90;;
37943;SDS011;23767;42.024;23.086;2023-07-31T13:08:59;6.00;;;1.70;;
37943;SDS011;23767;42.024;23.086;2023-07-31T13:11:25;3.63;;;1.70;;
37943;SDS011;23767;42.024;23.086;2023-07-31T13:13:51;4.10;;;1.52;;
37943;SDS011;23767;42.024;23.086;2023-07-31T13:16:17;3.40;;;1.60;;
37943;SDS011;23767;42.024;23.086;2023-07-31T13:18:43;3.92;;;1.90;;
37943;SDS011;23767;42.024;23.086;2023-07-31T13:21:09;2.97;;;1.80;;
37943;SDS011;23767;42.024;23.086;2023-07-31T13:23:35;3.60;;;1.70;;
37943;SDS011;23767;42.024;23.086;2023-07-31T13:26:01;4.53;;;1.80;;
37943;SDS011;23767;42.024;23.086;2023-07-31T13:28:27;3.58;;;1.95;;
37943;SDS011;23767;42.024;23.086;2023-07-31T13:30:53;4.35;;;2.00;;
37943;SDS011;23767;42.024;23.086;2023-07-31T13:33:19;3.80;;;2.35;;
37943;SDS011;23767;42.024;23.086;2023-07-31T13:35:45;4.80;;;2.78;;
37943;SDS011;23767;42.024;23.086;2023-07-31T13:38:11;4.95;;;2.55;;
37943;SDS011;23767;42.024;23.086;2023-07-31T13:40:37;4.90;;;2.47;;
37943;SDS011;23767;42.024;23.086;2023-07-31T13:43:03;6.20;;;2.63;;
37943;SDS011;23767;42.024;23.086;2023-07-31T13:45:29;4.53;;;2.20;;
37943;SDS011;23767;42.024;23.086;2023-07-31T13:47:55;3.70;;;2.10;;
37943;SDS011;23767;42.024;23.086;2023-07-31T13:50:21;3.78;;;2.30;;
37943;SDS011;23767;42.024;23.086;2023-07-31T13:52:47;4.53;;;2.60;;
37943;SDS011;23767;42.024;23.086;2023-07-31T13:55:14;3.67;;;2.47;;
37943;SDS011;23767;42.024;23.086;2023-07-31T13:57:40;5.30;;;2.90;;
37943;SDS011;23767;42.024;23.086;2023-07-31T14:00:06;4.65;;;3.05;;
37943;SDS011;23767;42.024;23.086;2023-07-31T14:02:33;5.07;;;2.92;;
37943;SDS011;23767;42.024;23.086;2023-07-31T14:04:59;4.28;;;2.72;;
37943;SDS011;23767;42.024;23.086;2023-07-31T14:07:25;5.30;;;2.55;;
37943;SDS011;23767;42.024;23.086;2023-07-31T14:09:51;4.20;;;2.50;;
37943;SDS011;23767;42.024;23.086;2023-07-31T14:12:17;4.88;;;3.03;;
37943;SDS011;23767;42.024;23.086;2023-07-31T14:14:43;4.55;;;2.80;;
37943;SDS011;23767;42.024;23.086;2023-07-31T14:17:09;4.22;;;3.00;;
37943;SDS011;23767;42.024;23.086;2023-07-31T14:19:35;5.72;;;3.80;;
37943;SDS011;23767;42.024;23.086;2023-07-31T14:22:01;5.47;;;3.53;;
37943;SDS011;23767;42.024;23.086;2023-07-31T14:24:27;6.25;;;3.88;;
37943;SDS011;23767;42.024;23.086;2023-07-31T14:26:53;5.18;;;3.78;;
37943;SDS011;23767;42.024;23.086;2023-07-31T14:29:19;5.25;;;3.67;;
37943;SDS011;23767;42.024;23.086;2023-07-31T14:31:45;5.15;;;3.80;;
37943;SDS011;23767;42.024;23.086;2023-07-31T14:34:11;5.25;;;4.05;;
37943;SDS011;23767;42.024;23.086;2023-07-31T14:36:37;5.90;;;3.60;;
37943;SDS011;23767;42.024;23.086;2023-07-31T14:39:03;6.10;;;3.67;;
37943;SDS011;23767;42.024;23.086;2023-07-31T14:41:29;5.57;;;4.45;;